Time;durP1;ratioP1;P1;durP2;ratioP2;P2;SDS_P1;SDS_P2;PMS_P1;PMS_P2;Temp;Humidity;BMP_temperature;BMP_pressure;BME280_temperature;BME280_humidity;BME280_pressure;Samples;Min_cycle;Max_cycle;Signal;HPM_P1;HPM_P2
2021/08/15 06:11:16;;;;;;;11.93;4.43;;;19.70;99.90;;;;;;2555403;54;3621746;-84
2021/08/15 06:13:44;;;;;;;12.73;4.13;;;20.00;99.90;;;;;;2622551;46;20034;-86
2021/08/15 06:16:09;;;;;;;8.48;3.72;;;20.00;99.90;;;;;;2624256;46;20034;-85
2021/08/15 06:18:35;;;;;;;11.48;3.95;;;19.90;99.90;;;;;;2623880;54;20034;-85
2021/08/15 06:21:01;;;;;;;10.73;4.18;;;20.30;99.90;;;;;;2621205;46;20510;-87
2021/08/15 06:23:26;;;;;;;9.73;4.30;;;20.30;99.90;;;;;;2622318;46;20026;-88
2021/08/15 06:25:52;;;;;;;5.97;2.75;;;19.90;99.90;;;;;;2621892;54;20586;-86
2021/08/15 06:28:20;;;;;;;9.38;4.22;;;20.40;99.90;;;;;;2624575;46;20106;-85
2021/08/15 06:30:46;;;;;;;10.50;4.20;;;20.80;99.90;;;;;;2627353;54;20134;-88
2021/08/15 06:33:11;;;;;;;8.73;4.00;;;20.90;99.90;;;;;;2633231;46;20038;-87
2021/08/15 06:35:37;;;;;;;9.02;4.00;;;21.10;99.90;;;;;;2633166;46;20086;-88
2021/08/15 06:38:03;;;;;;;10.90;5.00;;;21.20;99.90;;;;;;2627141;54;20026;-85
2021/08/15 06:40:29;;;;;;;11.60;4.03;;;20.70;99.90;;;;;;2619506;46;20538;-84
2021/08/15 06:43:09;;;;;;;7.45;4.28;;;20.80;99.90;;;;;;2618694;46;20057;-84
2021/08/15 06:45:37;;;;;;;9.15;3.90;;;20.50;99.90;;;;;;2617980;46;20030;-86
2021/08/15 06:48:04;;;;;;;8.55;4.40;;;20.70;99.90;;;;;;2619414;46;20034;-86
2021/08/15 06:50:30;;;;;;;12.90;5.30;;;20.70;99.90;;;;;;2619582;54;20026;-86
2021/08/15 06:52:56;;;;;;;13.20;5.22;;;20.10;99.90;;;;;;2619981;46;20581;-86
2021/08/15 06:55:22;;;;;;;9.48;5.22;;;19.80;99.90;;;;;;2620308;54;20042;-87
2021/08/15 06:57:47;;;;;;;11.38;5.20;;;19.80;99.90;;;;;;2621351;46;20048;-86
2021/08/15 07:00:14;;;;;;;13.85;5.75;;;19.90;99.90;;;;;;2619478;46;20054;-87
2021/08/15 07:02:43;;;;;;;13.35;6.18;;;19.70;99.90;;;;;;2619987;38;20753;-88
2021/08/15 07:05:10;;;;;;;10.52;6.13;;;20.20;99.90;;;;;;2619481;46;20537;-87
2021/08/15 07:07:36;;;;;;;11.73;4.63;;;19.90;99.90;;;;;;2619372;46;20042;-86
2021/08/15 07:10:06;;;;;;;10.75;5.75;;;20.70;99.90;;;;;;2620772;46;20125;-84
2021/08/15 07:12:32;;;;;;;8.18;5.32;;;20.10;99.90;;;;;;2623008;46;20054;-87
2021/08/15 07:15:01;;;;;;;8.65;4.95;;;20.00;99.90;;;;;;2622876;46;20034;-87
2021/08/15 07:17:27;;;;;;;12.57;6.55;;;20.00;99.90;;;;;;2625376;54;20034;-86
2021/08/15 07:19:53;;;;;;;14.80;6.53;;;20.00;99.90;;;;;;2623539;46;20030;-86
2021/08/15 07:22:19;;;;;;;8.45;5.70;;;20.10;99.90;;;;;;2622204;46;20043;-86
2021/08/15 07:24:45;;;;;;;14.02;7.38;;;19.90;99.90;;;;;;2624621;54;20110;-87
2021/08/15 07:27:10;;;;;;;13.55;6.07;;;19.80;99.90;;;;;;2628419;46;20042;-86
2021/08/15 07:29:36;;;;;;;11.57;6.20;;;19.90;99.90;;;;;;2616573;31;20506;-86
2021/08/15 07:32:02;;;;;;;12.13;6.45;;;20.10;99.90;;;;;;2615789;47;20034;-87
2021/08/15 07:34:28;;;;;;;11.65;6.57;;;20.20;99.90;;;;;;2616539;46;20057;-86
2021/08/15 07:36:53;;;;;;;11.68;5.85;;;20.20;99.90;;;;;;2616166;47;20046;-87
2021/08/15 07:39:19;;;;;;;11.60;5.72;;;20.50;99.90;;;;;;2616864;46;20148;-86
2021/08/15 07:41:45;;;;;;;15.15;6.25;;;20.50;99.90;;;;;;2618353;46;20035;-87
2021/08/15 07:44:10;;;;;;;11.88;6.35;;;20.40;99.90;;;;;;2625429;39;20435;-88
2021/08/15 07:46:36;;;;;;;11.23;5.38;;;20.50;99.90;;;;;;2624682;54;20098;-90
2021/08/15 07:49:02;;;;;;;12.95;6.40;;;20.90;99.90;;;;;;2621509;46;20049;-85
2021/08/15 07:51:31;;;;;;;14.02;6.05;;;20.60;99.90;;;;;;2613812;46;20046;-86
2021/08/15 07:53:57;;;;;;;11.63;5.20;;;20.80;99.90;;;;;;2616158;54;20073;-87
2021/08/15 07:56:23;;;;;;;12.02;5.93;;;20.90;99.90;;;;;;2616572;46;20062;-87
2021/08/15 07:58:49;;;;;;;13.40;5.90;;;21.00;99.90;;;;;;2617287;46;20035;-87
2021/08/15 08:01:16;;;;;;;10.73;4.78;;;21.90;99.90;;;;;;2616622;54;20126;-88
2021/08/15 08:03:42;;;;;;;11.18;5.78;;;21.80;99.90;;;;;;2616138;47;20042;-85
2021/08/15 08:06:10;;;;;;;14.77;6.43;;;22.10;99.90;;;;;;2615214;46;20034;-84
2021/08/15 08:08:36;;;;;;;10.30;6.45;;;21.70;99.90;;;;;;2616993;54;20149;-87
2021/08/15 08:11:02;;;;;;;15.45;7.25;;;21.60;99.90;;;;;;2615582;47;20065;-86
2021/08/15 08:13:29;;;;;;;13.73;6.13;;;21.40;99.90;;;;;;2615816;46;20073;-86
2021/08/15 08:15:57;;;;;;;13.65;6.47;;;21.60;99.90;;;;;;2617048;54;20035;-87
2021/08/15 08:18:23;;;;;;;15.35;6.93;;;21.80;99.90;;;;;;2616939;46;20064;-85
2021/08/15 08:20:49;;;;;;;15.93;5.80;;;21.60;99.90;;;;;;2617153;47;20041;-84
2021/08/15 08:23:16;;;;;;;15.63;5.60;;;21.70;99.90;;;;;;2616095;54;20042;-85
2021/08/15 08:25:44;;;;;;;10.80;4.90;;;21.80;99.90;;;;;;2615510;46;20041;-85
2021/08/15 08:28:11;;;;;;;12.75;4.57;;;22.80;99.90;;;;;;2616230;54;20507;-86
2021/08/15 08:30:38;;;;;;;8.32;4.50;;;23.30;99.90;;;;;;2615869;46;20042;-86
2021/08/15 08:33:04;;;;;;;9.48;5.07;;;23.20;99.90;;;;;;2615826;46;20050;-84
2021/08/15 08:35:38;;;;;;;12.85;5.85;;;22.70;99.90;;;;;;2616038;46;20085;-85
2021/08/15 08:38:03;;;;;;;11.75;6.15;;;22.60;99.90;;;;;;2617435;46;20122;-87
2021/08/15 08:40:29;;;;;;;14.18;5.50;;;22.60;99.90;;;;;;2617649;54;20049;-85
2021/08/15 08:42:56;;;;;;;13.63;5.35;;;22.90;99.90;;;;;;2616297;46;20555;-85
2021/08/15 08:45:24;;;;;;;10.25;5.05;;;23.20;99.90;;;;;;2615050;47;20538;-85
2021/08/15 08:47:51;;;;;;;11.98;5.70;;;23.90;99.90;;;;;;2614778;47;20051;-85
2021/08/15 08:50:17;;;;;;;18.60;6.32;;;22.90;99.90;;;;;;2615915;47;20038;-85
2021/08/15 08:52:46;;;;;;;14.10;5.05;;;22.70;99.90;;;;;;2614464;46;20038;-85
2021/08/15 08:55:13;;;;;;;15.10;6.40;;;22.70;99.90;;;;;;2614681;31;20519;-85
2021/08/15 08:57:38;;;;;;;13.00;4.72;;;22.50;99.90;;;;;;2614045;47;20031;-85
2021/08/15 09:00:06;;;;;;;12.25;6.13;;;23.50;99.90;;;;;;2614456;46;20149;-83
2021/08/15 09:02:36;;;;;;;13.90;5.90;;;24.20;99.90;;;;;;2613908;47;20065;-84
2021/08/15 09:05:03;;;;;;;13.10;6.10;;;24.90;99.90;;;;;;2614916;47;20030;-83
2021/08/15 09:07:34;;;;;;;13.73;5.75;;;25.90;99.90;;;;;;2614493;47;20035;-83
2021/08/15 09:10:01;;;;;;;15.73;6.43;;;25.80;99.90;;;;;;2613781;47;20031;-83
2021/08/15 09:12:43;;;;;;;14.55;6.82;;;25.60;99.90;;;;;;2614387;54;20110;-84
2021/08/15 09:15:27;;;;;;;15.23;6.55;;;25.60;99.90;;;;;;2614065;47;20035;-83
2021/08/15 09:17:55;;;;;;;17.73;7.20;;;25.30;99.90;;;;;;2614337;47;20061;-84
2021/08/15 09:20:36;;;;;;;14.15;7.18;;;24.80;99.90;;;;;;2613377;47;20034;-85
2021/08/15 09:23:18;;;;;;;12.57;6.40;;;24.60;99.90;;;;;;2614967;31;20476;-81
2021/08/15 09:25:44;;;;;;;11.63;6.40;;;24.60;99.90;;;;;;2614079;47;20543;-83
2021/08/15 09:28:09;;;;;;;17.80;6.93;;;25.50;99.90;;;;;;2615314;46;20165;-86
2021/08/15 09:30:35;;;;;;;18.23;6.00;;;25.80;99.90;;;;;;2614498;47;20037;-85
2021/08/15 09:33:05;;;;;;;12.05;6.10;;;26.90;99.90;;;;;;2615416;47;20037;-84
2021/08/15 09:35:36;;;;;;;13.32;5.95;;;26.10;99.90;;;;;;2615566;47;20022;-83
2021/08/15 09:38:12;;;;;;;13.80;6.70;;;25.80;99.90;;;;;;2615395;39;20418;-85
2021/08/15 09:40:42;;;;;;;13.32;5.65;;;25.80;99.90;;;;;;2616102;47;20278;-84
2021/08/15 09:43:17;;;;;;;10.75;6.07;;;24.80;99.90;;;;;;2614856;47;20049;-84
2021/08/15 09:45:50;;;;;;;12.05;5.53;;;24.60;99.90;;;;;;2614072;46;20121;-83
2021/08/15 09:48:33;;;;;;;12.52;6.03;;;24.10;99.90;;;;;;2613795;54;20030;-84
2021/08/15 09:51:14;;;;;;;;;;;23.80;99.90;;;;;;2614507;39;20559;-82
2021/08/15 09:53:39;;;;;;;11.80;5.60;;;23.80;99.90;;;;;;2613995;47;19966;-82
2021/08/15 09:56:05;;;;;;;17.52;6.35;;;23.30;99.90;;;;;;2612248;39;20515;-84
2021/08/15 09:58:31;;;;;;;13.93;5.93;;;24.50;99.90;;;;;;2613841;39;20397;-83
2021/08/15 10:01:00;;;;;;;15.48;7.22;;;24.70;99.90;;;;;;2613706;47;20041;-82
2021/08/15 10:03:25;;;;;;;15.93;6.40;;;24.50;99.90;;;;;;2613011;54;20030;-80
2021/08/15 10:05:51;;;;;;;11.93;6.05;;;24.30;99.90;;;;;;2616550;47;20042;-85
2021/08/15 10:08:17;;;;;;;11.73;5.82;;;24.90;99.90;;;;;;2617805;47;20054;-83
2021/08/15 10:10:44;;;;;;;10.68;5.45;;;24.50;99.90;;;;;;2617287;47;20595;-83
2021/08/15 10:13:10;;;;;;;13.77;5.60;;;25.10;99.90;;;;;;2612747;54;20030;-83
2021/08/15 10:15:38;;;;;;;12.38;6.30;;;25.10;99.90;;;;;;2613583;54;20057;-85
2021/08/15 10:18:10;;;;;;;11.45;4.70;;;24.30;99.90;;;;;;2610422;47;20054;-82
2021/08/15 10:20:36;;;;;;;12.50;5.93;;;23.80;99.90;;;;;;2612932;47;20154;-82
2021/08/15 10:23:10;;;;;;;11.75;5.70;;;24.40;99.90;;;;;;2613015;54;20023;-84
2021/08/15 10:25:41;;;;;;;14.60;6.07;;;24.40;99.90;;;;;;2612621;47;20037;-84
2021/08/15 10:28:07;;;;;;;13.52;6.13;;;24.30;99.90;;;;;;2613801;47;20517;-82
2021/08/15 10:30:44;;;;;;;11.77;5.82;;;24.70;99.90;;;;;;2613677;47;20025;-84
2021/08/15 10:33:09;;;;;;;11.23;5.72;;;25.10;99.90;;;;;;2613178;47;20034;-85
2021/08/15 10:35:38;;;;;;;11.38;6.32;;;24.60;99.90;;;;;;2616144;54;20034;-82
2021/08/15 10:38:15;;;;;;;14.68;6.88;;;24.30;99.90;;;;;;2613746;47;20043;-85
2021/08/15 10:40:41;;;;;;;13.80;5.90;;;24.10;99.90;;;;;;2614940;54;20384;-83
2021/08/15 10:43:15;;;;;;;14.00;7.78;;;24.40;99.90;;;;;;2613450;47;20023;-83
2021/08/15 10:45:42;;;;;;;15.85;8.00;;;23.70;99.90;;;;;;2613599;47;20535;-85
2021/08/15 10:48:12;;;;;;;18.30;9.10;;;23.20;99.90;;;;;;2613556;47;20570;-85
2021/08/15 10:50:54;;;;;;;12.82;6.10;;;24.70;99.90;;;;;;2613216;54;20027;-86
2021/08/15 10:53:28;;;;;;;15.27;6.20;;;23.70;99.90;;;;;;2613875;47;20092;-84
2021/08/15 10:55:59;;;;;;;13.77;6.85;;;24.10;99.90;;;;;;2613470;47;20031;-85
2021/08/15 10:58:42;;;;;;;12.13;6.20;;;24.70;99.90;;;;;;2614947;47;20049;-85
2021/08/15 11:01:18;;;;;;;15.25;5.70;;;25.20;99.90;;;;;;2613779;46;20026;-86
2021/08/15 11:03:47;;;;;;;14.68;6.65;;;25.30;99.90;;;;;;2614173;54;20141;-84
2021/08/15 11:06:34;;;;;;;14.27;7.28;;;24.30;99.90;;;;;;2614164;46;20039;-84
2021/08/15 11:09:05;;;;;;;14.13;6.82;;;24.00;99.90;;;;;;2614042;46;20034;-85
2021/08/15 11:11:35;;;;;;;12.32;6.20;;;23.60;99.90;;;;;;2614828;46;20472;-85
2021/08/15 11:14:20;;;;;;;13.80;6.22;;;24.20;99.90;;;;;;2613830;54;20030;-85
2021/08/15 11:16:57;;;;;;;11.43;5.55;;;24.10;99.90;;;;;;2613375;54;20173;-86
2021/08/15 11:19:26;;;;;;;17.35;6.43;;;25.10;99.90;;;;;;2614090;46;20065;-86
2021/08/15 11:22:14;;;;;;;13.70;5.82;;;24.40;99.90;;;;;;2613154;47;20876;-85
2021/08/15 11:24:43;;;;;;;12.70;5.25;;;24.60;99.90;;;;;;2613213;47;20045;-84
2021/08/15 11:27:12;;;;;;;15.23;6.03;;;25.40;99.90;;;;;;2613684;46;20030;-86
2021/08/15 11:29:39;;;;;;;12.32;5.90;;;24.90;99.90;;;;;;2614773;39;20346;-86
2021/08/15 11:32:18;;;;;;;16.83;7.00;;;24.30;99.90;;;;;;2614319;46;20037;-86
2021/08/15 11:34:53;;;;;;;15.10;5.82;;;24.00;99.90;;;;;;2614615;47;20050;-84
2021/08/15 11:37:20;;;;;;;13.27;6.60;;;23.90;99.90;;;;;;2613557;47;20031;-85
2021/08/15 11:39:47;;;;;;;15.13;7.13;;;24.10;99.90;;;;;;2612828;54;20023;-85
2021/08/15 11:42:25;;;;;;;16.33;5.95;;;24.00;99.90;;;;;;2614195;46;20042;-88
2021/08/15 11:44:55;;;;;;;14.23;6.70;;;25.10;99.90;;;;;;2614000;47;20543;-87
2021/08/15 11:47:26;;;;;;;14.90;6.95;;;25.10;99.90;;;;;;2613870;54;20076;-85
2021/08/15 11:49:52;;;;;;;14.82;5.13;;;25.30;99.90;;;;;;2614381;46;20852;-85
2021/08/15 11:52:24;;;;;;;13.68;6.13;;;25.40;99.90;;;;;;2614284;39;20573;-87
2021/08/15 11:54:51;;;;;;;13.77;6.00;;;24.70;99.90;;;;;;2614370;54;20076;-86
2021/08/15 11:57:17;;;;;;;11.55;5.72;;;24.90;99.90;;;;;;2615939;46;20507;-85
2021/08/15 12:00:00;;;;;;;17.00;6.35;;;24.70;99.90;;;;;;2617056;54;20049;-86
2021/08/15 12:02:26;;;;;;;13.98;6.45;;;25.00;99.90;;;;;;2615371;46;20172;-87
2021/08/15 12:04:52;;;;;;;13.50;5.63;;;24.70;99.90;;;;;;2615065;46;20744;-84
2021/08/15 12:07:27;;;;;;;15.50;6.20;;;25.10;99.90;;;;;;2614884;54;20023;-84
2021/08/15 12:10:22;;;;;;;12.38;6.03;;;25.00;99.90;;;;;;2614253;47;20034;-84
2021/08/15 12:13:17;;;;;;;12.80;6.28;;;24.80;99.90;;;;;;2614495;47;20043;-83
2021/08/15 12:16:08;;;;;;;15.35;6.22;;;24.60;99.90;;;;;;2614280;47;20030;-84
2021/08/15 12:18:49;;;;;;;18.30;7.07;;;23.90;99.90;;;;;;2613818;47;20023;-82
2021/08/15 12:21:17;;;;;;;19.48;7.20;;;25.00;99.90;;;;;;2614755;47;20574;-83
2021/08/15 12:24:21;;;;;;;14.73;6.90;;;24.10;99.90;;;;;;2614342;54;20030;-83
2021/08/15 12:27:10;;;;;;;10.82;5.85;;;24.50;99.90;;;;;;2614655;46;20031;-83
2021/08/15 12:29:42;;;;;;;11.57;6.43;;;24.70;99.90;;;;;;2614537;47;20029;-82
2021/08/15 12:32:18;;;;;;;12.60;5.55;;;24.90;99.90;;;;;;2614923;46;20086;-82
2021/08/15 12:34:57;;;;;;;13.57;6.18;;;25.70;99.90;;;;;;2614211;47;20559;-84
2021/08/15 12:37:29;;;;;;;14.77;6.03;;;24.80;99.90;;;;;;2614453;47;20038;-82
2021/08/15 12:40:07;;;;;;;12.00;5.25;;;24.50;99.90;;;;;;2613797;47;20030;-84
2021/08/15 12:42:35;;;;;;;14.00;5.80;;;25.10;99.90;;;;;;2613946;51;20065;-81
2021/08/15 12:45:04;;;;;;;16.90;6.03;;;25.00;99.90;;;;;;2614506;47;20074;-82
2021/08/15 12:47:31;;;;;;;12.25;5.55;;;24.80;99.90;;;;;;2614310;47;20113;-83
2021/08/15 12:50:19;;;;;;;13.40;5.82;;;24.40;99.90;;;;;;2615626;47;20064;-83
2021/08/15 12:52:50;;;;;;;12.25;5.70;;;25.10;99.90;;;;;;2616882;46;20041;-81
2021/08/15 12:55:26;;;;;;;15.45;5.75;;;24.40;99.90;;;;;;2615175;39;20472;-83
2021/08/15 12:58:01;;;;;;;12.55;6.65;;;24.50;99.90;;;;;;2615249;47;20042;-80
2021/08/15 13:00:36;;;;;;;14.30;6.40;;;24.30;99.90;;;;;;2614706;47;20045;-82
2021/08/15 13:03:03;;;;;;;12.20;5.25;;;24.30;99.90;;;;;;2614404;47;20061;-83
2021/08/15 13:05:31;;;;;;;16.95;5.88;;;24.60;99.90;;;;;;2614876;47;20060;-82
2021/08/15 13:07:57;;;;;;;13.15;5.25;;;24.20;99.90;;;;;;2614529;47;20519;-80
2021/08/15 13:10:24;;;;;;;7.15;3.90;;;24.00;99.90;;;;;;2614075;47;20149;-81
2021/08/15 13:12:50;;;;;;;10.98;4.15;;;24.50;99.90;;;;;;2614803;54;20061;-81
2021/08/15 13:15:16;;;;;;;8.27;3.75;;;24.50;99.90;;;;;;2614207;47;20558;-82
2021/08/15 13:17:43;;;;;;;11.13;3.75;;;25.30;99.90;;;;;;2618651;47;20149;-81
2021/08/15 13:20:11;;;;;;;6.93;3.17;;;26.20;99.90;;;;;;2620881;54;20569;-81
2021/08/15 13:22:40;;;;;;;9.18;3.75;;;25.90;99.90;;;;;;2622292;46;20084;-83
2021/08/15 13:25:06;;;;;;;5.80;3.58;;;25.10;99.90;;;;;;2618672;47;20532;-82
2021/08/15 13:27:32;;;;;;;7.32;3.80;;;25.30;99.90;;;;;;2615827;39;20439;-83
2021/08/15 13:29:57;;;;;;;9.13;2.63;;;24.90;99.30;;;;;;2614794;54;20415;-83
2021/08/15 13:32:24;;;;;;;6.22;3.00;;;24.50;99.90;;;;;;2614564;47;20037;-82
2021/08/15 13:34:55;;;;;;;4.38;2.72;;;24.50;99.90;;;;;;2613525;47;20618;-81
2021/08/15 13:37:24;;;;;;;8.18;3.15;;;25.00;99.90;;;;;;2613837;54;20030;-82
2021/08/15 13:39:55;;;;;;;8.20;3.40;;;25.30;99.90;;;;;;2613306;47;20022;-82
2021/08/15 13:42:22;;;;;;;6.78;2.67;;;24.50;99.90;;;;;;2614125;54;20062;-80
2021/08/15 13:44:49;;;;;;;9.70;3.10;;;25.20;99.90;;;;;;2614542;46;20065;-81
2021/08/15 13:47:15;;;;;;;8.25;3.40;;;25.10;99.90;;;;;;2614261;54;20022;-82
2021/08/15 13:49:41;;;;;;;8.75;4.38;;;25.60;99.90;;;;;;2614171;47;20714;-82
2021/08/15 13:52:06;;;;;;;8.02;3.55;;;25.30;99.90;;;;;;2613892;54;20030;-82
2021/08/15 13:54:32;;;;;;;6.72;3.17;;;25.30;99.90;;;;;;2613147;47;20022;-82
2021/08/15 13:56:58;;;;;;;7.18;2.90;;;25.50;99.90;;;;;;2614537;46;20052;-82
2021/08/15 13:59:23;;;;;;;5.38;2.38;;;25.80;99.90;;;;;;2613440;54;20035;-81
2021/08/15 14:01:49;;;;;;;5.65;3.03;;;25.80;99.90;;;;;;2613876;39;20437;-82
2021/08/15 14:04:15;;;;;;;11.65;3.65;;;25.80;99.90;;;;;;2613568;54;20523;-80
2021/08/15 14:06:40;;;;;;;9.20;3.22;;;25.60;99.90;;;;;;2613838;47;20045;-82
2021/08/15 14:09:07;;;;;;;5.55;2.60;;;25.80;99.90;;;;;;2612240;47;20162;-80
2021/08/15 14:11:33;;;;;;;7.63;3.67;;;25.70;99.90;;;;;;2613631;54;20042;-82
2021/08/15 14:13:59;;;;;;;7.70;3.55;;;25.50;99.90;;;;;;2614126;39;20419;-82
2021/08/15 14:16:25;;;;;;;8.10;3.50;;;25.40;99.90;;;;;;2613613;47;20037;-84
2021/08/15 14:18:51;;;;;;;11.10;4.38;;;25.30;99.90;;;;;;2613939;47;20121;-82
2021/08/15 14:21:16;;;;;;;10.57;4.05;;;25.40;99.90;;;;;;2612941;47;20073;-82
2021/08/15 14:23:44;;;;;;;11.65;4.60;;;25.30;99.90;;;;;;2614983;47;20057;-82
2021/08/15 14:26:11;;;;;;;8.27;4.28;;;25.30;99.90;;;;;;2618649;47;20034;-82
2021/08/15 14:28:37;;;;;;;11.27;4.72;;;25.20;99.90;;;;;;2618806;47;20512;-83
2021/08/15 14:31:02;;;;;;;11.93;4.85;;;25.10;99.90;;;;;;2614348;47;20025;-80
2021/08/15 14:33:28;;;;;;;10.68;4.25;;;24.90;99.90;;;;;;2614931;47;20030;-84
2021/08/15 14:35:54;;;;;;;8.38;4.15;;;24.70;99.90;;;;;;2614934;46;20043;-82
2021/08/15 14:38:20;;;;;;;13.20;3.95;;;24.50;99.90;;;;;;2613650;47;20122;-83
2021/08/15 14:40:48;;;;;;;12.40;4.03;;;24.50;99.90;;;;;;2615042;46;20130;-83
2021/08/15 14:43:14;;;;;;;6.40;3.40;;;24.40;99.90;;;;;;2613747;47;20034;-82
2021/08/15 14:45:40;;;;;;;14.88;4.22;;;24.30;99.90;;;;;;2614722;46;20045;-81
2021/08/15 14:48:11;;;;;;;11.13;3.95;;;24.20;99.90;;;;;;2614571;47;20065;-83
2021/08/15 14:50:37;;;;;;;10.10;3.58;;;24.40;99.90;;;;;;2613891;46;20065;-83
2021/08/15 14:53:03;;;;;;;11.32;4.53;;;24.50;99.90;;;;;;2614927;39;20523;-83
2021/08/15 14:55:28;;;;;;;11.43;4.22;;;24.30;99.90;;;;;;2614718;51;20077;-82
2021/08/15 14:57:55;;;;;;;12.20;3.97;;;24.20;99.90;;;;;;2613807;51;20050;-81
2021/08/15 15:00:22;;;;;;;13.55;4.63;;;24.00;99.90;;;;;;2614785;39;20260;-81
2021/08/15 15:02:47;;;;;;;10.73;4.00;;;24.00;99.90;;;;;;2614460;47;20029;-82
2021/08/15 15:05:13;;;;;;;11.90;3.97;;;24.20;99.90;;;;;;2613982;47;20034;-82
2021/08/15 15:07:39;;;;;;;10.10;4.45;;;24.30;99.90;;;;;;2614512;47;20030;-82
2021/08/15 15:10:05;;;;;;;6.70;3.75;;;24.40;99.90;;;;;;2613652;47;20022;-82
2021/08/15 15:12:36;;;;;;;10.23;3.97;;;24.30;99.90;;;;;;2614675;54;20058;-84
2021/08/15 15:15:13;;;;;;;12.52;4.15;;;24.50;99.90;;;;;;2614094;47;20129;-82
2021/08/15 15:17:40;;;;;;;9.90;3.67;;;24.20;99.90;;;;;;2613618;51;20038;-82
2021/08/15 15:20:06;;;;;;;12.23;4.63;;;24.00;99.90;;;;;;2614524;46;20027;-82
2021/08/15 15:22:32;;;;;;;11.57;4.45;;;23.80;99.90;;;;;;2614787;39;20514;-82
2021/08/15 15:25:00;;;;;;;8.60;4.13;;;23.70;99.90;;;;;;2613895;47;20053;-83
2021/08/15 15:27:25;;;;;;;9.77;4.00;;;23.70;99.90;;;;;;2613953;47;20060;-82
2021/08/15 15:29:51;;;;;;;12.88;4.30;;;23.80;99.90;;;;;;2613991;39;20262;-81
2021/08/15 15:32:17;;;;;;;15.98;4.32;;;23.70;99.90;;;;;;2614361;47;20837;-82
2021/08/15 15:34:42;;;;;;;13.38;4.65;;;23.90;99.90;;;;;;2614522;46;20034;-81
2021/08/15 15:37:10;;;;;;;11.27;3.83;;;23.90;99.90;;;;;;2614432;47;20053;-83
2021/08/15 15:39:37;;;;;;;12.50;4.32;;;23.70;99.90;;;;;;2613955;47;20121;-82
2021/08/15 15:42:03;;;;;;;11.98;4.35;;;23.90;99.90;;;;;;2614096;46;20149;-81
2021/08/15 15:44:31;;;;;;;10.40;4.13;;;23.90;99.90;;;;;;2614539;54;20069;-82
2021/08/15 15:46:56;;;;;;;11.40;4.97;;;23.70;99.90;;;;;;2614358;47;20129;-82
2021/08/15 15:49:22;;;;;;;15.05;4.85;;;23.80;99.90;;;;;;2613991;46;20034;-82
2021/08/15 15:51:48;;;;;;;13.27;4.90;;;23.80;99.90;;;;;;2613951;47;20027;-83
2021/08/15 15:54:13;;;;;;;11.55;3.97;;;23.90;99.90;;;;;;2613846;46;20065;-81
2021/08/15 15:56:39;;;;;;;11.50;4.30;;;23.60;99.90;;;;;;2614011;47;20023;-81
2021/08/15 15:59:05;;;;;;;11.05;4.50;;;23.10;99.90;;;;;;2614182;51;20022;-80
2021/08/15 16:01:30;;;;;;;16.10;8.60;;;22.60;99.90;;;;;;2615763;47;20565;-81
2021/08/15 16:03:57;;;;;;;13.75;5.15;;;23.20;99.90;;;;;;2615301;46;20043;-82
2021/08/15 16:06:23;;;;;;;10.95;4.47;;;22.40;99.90;;;;;;2614948;47;20149;-82
2021/08/15 16:08:50;;;;;;;11.85;4.78;;;22.80;99.90;;;;;;2614581;47;20027;-82
2021/08/15 16:11:15;;;;;;;15.15;5.18;;;22.90;99.90;;;;;;2614616;39;20167;-81
2021/08/15 16:13:41;;;;;;;16.13;6.75;;;22.70;99.90;;;;;;2614959;47;20039;-82
2021/08/15 16:16:09;;;;;;;15.30;5.95;;;22.40;99.90;;;;;;2614006;54;20106;-80
2021/08/15 16:18:36;;;;;;;14.73;4.55;;;23.10;99.90;;;;;;2614206;47;20037;-82
2021/08/15 16:21:02;;;;;;;11.30;4.20;;;23.10;99.90;;;;;;2614707;47;20037;-82
2021/08/15 16:23:28;;;;;;;13.82;5.50;;;22.50;99.90;;;;;;2614616;46;20038;-80
2021/08/15 16:25:57;;;;;;;14.27;4.88;;;22.00;99.90;;;;;;2614849;46;20077;-82
2021/08/15 16:28:23;;;;;;;10.07;5.25;;;22.50;99.90;;;;;;2614753;46;20582;-81
2021/08/15 16:30:49;;;;;;;11.18;5.03;;;22.80;99.90;;;;;;2614345;47;20030;-81
2021/08/15 16:33:15;;;;;;;12.32;4.18;;;22.60;99.90;;;;;;2614174;51;20515;-82
2021/08/15 16:35:41;;;;;;;12.25;4.55;;;22.80;99.90;;;;;;2614451;47;20038;-81
2021/08/15 16:38:07;;;;;;;11.85;5.28;;;22.60;99.90;;;;;;2614137;39;20467;-81
2021/08/15 16:40:32;;;;;;;12.55;4.78;;;22.50;99.90;;;;;;2613926;47;20034;-81
2021/08/15 16:42:58;;;;;;;19.27;5.82;;;22.70;99.90;;;;;;2614682;54;20031;-82
2021/08/15 16:45:24;;;;;;;17.00;5.13;;;22.70;99.90;;;;;;2613856;54;20564;-81
2021/08/15 16:47:49;;;;;;;13.80;5.20;;;22.80;99.90;;;;;;2613886;54;20030;-81
2021/08/15 16:50:15;;;;;;;13.60;4.97;;;22.30;99.90;;;;;;2614012;47;20030;-81
2021/08/15 16:52:41;;;;;;;12.50;6.78;;;22.40;99.90;;;;;;2614386;39;20439;-81
2021/08/15 16:55:07;;;;;;;16.85;8.98;;;21.90;99.90;;;;;;2613365;47;20060;-81
2021/08/15 16:57:33;;;;;;;20.13;8.07;;;22.50;99.90;;;;;;2614226;47;20045;-83
2021/08/15 16:59:59;;;;;;;16.33;5.85;;;22.30;99.90;;;;;;2614242;47;20030;-84
2021/08/15 17:02:24;;;;;;;17.98;6.03;;;22.30;99.90;;;;;;2614260;46;20579;-81
2021/08/15 17:04:50;;;;;;;11.55;5.75;;;21.90;99.90;;;;;;2614518;54;20523;-81
2021/08/15 17:07:15;;;;;;;15.65;5.47;;;22.40;99.90;;;;;;2613779;46;20074;-81
2021/08/15 17:09:43;;;;;;;16.95;5.90;;;21.80;99.90;;;;;;2613480;47;20086;-81
2021/08/15 17:12:10;;;;;;;14.13;5.50;;;21.80;99.90;;;;;;2614245;47;20030;-82
2021/08/15 17:14:35;;;;;;;11.35;5.05;;;21.60;99.90;;;;;;2614523;47;20031;-81
2021/08/15 17:17:02;;;;;;;14.90;5.28;;;21.70;99.90;;;;;;2614007;47;20559;-82
2021/08/15 17:19:28;;;;;;;12.98;6.22;;;21.50;99.90;;;;;;2614358;47;20065;-83
2021/08/15 17:21:53;;;;;;;12.13;6.53;;;21.20;99.90;;;;;;2614162;51;20023;-83
2021/08/15 17:24:19;;;;;;;20.95;7.10;;;20.90;99.90;;;;;;2613055;47;20018;-82
2021/08/15 17:26:47;;;;;;;23.48;6.32;;;20.80;99.90;;;;;;2616025;47;20029;-84
2021/08/15 17:29:13;;;;;;;17.92;6.18;;;20.90;99.90;;;;;;2615065;54;20599;-86
2021/08/15 17:31:38;;;;;;;14.25;5.82;;;21.00;99.90;;;;;;2615391;54;20101;-86
2021/08/15 17:34:04;;;;;;;10.18;5.15;;;21.40;99.90;;;;;;2615551;54;20069;-83
2021/08/15 17:36:30;;;;;;;16.30;5.38;;;21.30;99.90;;;;;;2614548;46;20125;-85
2021/08/15 17:38:55;;;;;;;14.30;5.70;;;21.60;99.90;;;;;;2614046;46;20049;-86
2021/08/15 17:41:21;;;;;;;16.35;5.93;;;21.70;99.90;;;;;;2617045;39;20458;-86
2021/08/15 17:43:47;;;;;;;18.30;5.80;;;21.60;99.90;;;;;;2616943;47;20042;-85
2021/08/15 17:46:13;;;;;;;11.27;5.35;;;21.50;99.90;;;;;;2616064;46;20038;-86
2021/08/15 17:48:39;;;;;;;10.15;5.43;;;21.60;99.90;;;;;;2614603;47;20133;-86
2021/08/15 17:51:05;;;;;;;11.80;5.38;;;21.40;99.90;;;;;;2612573;47;20058;-84
2021/08/15 17:53:31;;;;;;;14.75;5.82;;;21.50;99.90;;;;;;2614028;47;20052;-83
2021/08/15 17:55:57;;;;;;;13.38;5.63;;;21.30;99.90;;;;;;2615280;54;20026;-82
2021/08/15 17:58:23;;;;;;;14.00;6.10;;;21.30;99.90;;;;;;2614369;51;20053;-84
2021/08/15 18:00:49;;;;;;;17.45;6.40;;;20.90;99.90;;;;;;2615196;54;20046;-83
2021/08/15 18:03:15;;;;;;;14.38;6.78;;;20.90;99.90;;;;;;2614562;46;20069;-83
2021/08/15 18:05:41;;;;;;;13.07;6.63;;;21.00;99.90;;;;;;2615759;51;20042;-83
2021/08/15 18:08:10;;;;;;;16.17;6.25;;;21.00;99.90;;;;;;2614592;46;20538;-83
2021/08/15 18:10:35;;;;;;;14.70;6.32;;;21.20;99.90;;;;;;2615382;47;20035;-84
2021/08/15 18:13:01;;;;;;;15.38;6.88;;;21.20;99.90;;;;;;2615602;47;20072;-83
2021/08/15 18:15:27;;;;;;;14.48;6.05;;;21.10;99.90;;;;;;2619508;47;20038;-83
2021/08/15 18:17:53;;;;;;;13.70;6.90;;;21.00;99.90;;;;;;2621741;39;20450;-82
2021/08/15 18:20:19;;;;;;;19.45;7.55;;;21.20;99.90;;;;;;2621448;47;20034;-82
2021/08/15 18:22:49;;;;;;;16.95;6.47;;;21.00;99.90;;;;;;2619304;47;20027;-82
2021/08/15 18:25:19;;;;;;;15.23;6.93;;;21.10;99.90;;;;;;2616437;47;20058;-85
2021/08/15 18:27:52;;;;;;;13.23;6.57;;;21.00;99.90;;;;;;2615970;47;20035;-84
2021/08/15 18:30:19;;;;;;;14.65;6.18;;;20.90;99.90;;;;;;2614245;47;20038;-86
2021/08/15 18:32:45;;;;;;;17.67;7.65;;;21.00;99.90;;;;;;2614446;47;20031;-85
2021/08/15 18:35:12;;;;;;;17.40;6.80;;;20.60;99.90;;;;;;2614493;47;20035;-84
2021/08/15 18:37:39;;;;;;;12.50;5.75;;;20.20;99.90;;;;;;2613672;47;20053;-82
2021/08/15 18:40:08;;;;;;;11.60;5.38;;;20.40;99.90;;;;;;2614567;47;20026;-88
2021/08/15 18:42:34;;;;;;;15.25;6.53;;;20.40;99.90;;;;;;2614146;51;20030;-82
2021/08/15 18:45:00;;;;;;;15.00;6.68;;;20.60;99.90;;;;;;2614476;54;20031;-83
2021/08/15 18:47:26;;;;;;;15.90;6.28;;;20.20;99.90;;;;;;2613221;47;20138;-84
2021/08/15 18:49:52;;;;;;;19.42;5.75;;;20.30;99.90;;;;;;2613359;47;20045;-83
2021/08/15 18:52:18;;;;;;;14.63;6.22;;;20.40;99.90;;;;;;2613186;51;20030;-83
2021/08/15 18:54:43;;;;;;;16.25;7.03;;;20.40;99.90;;;;;;2613442;47;20076;-83